Time;durP1;ratioP1;P1;durP2;ratioP2;P2;SDS_P1;SDS_P2;PMS_P1;PMS_P2;Temp;Humidity;BMP_temperature;BMP_pressure;BME280_temperature;BME280_humidity;BME280_pressure;Samples;Min_cycle;Max_cycle;Signal;HPM_P1;HPM_P2
2022/06/05 00:02:25;;;;;;;10.95;6.18;;;;;;;;;;5040860;28;20202;-74
2022/06/05 00:04:59;;;;;;;7.80;5.47;;;;;;;;;;5041178;28;20198;-74
2022/06/05 00:07:24;;;;;;;6.85;5.97;;;;;;;;;;5035660;28;20570;-74
2022/06/05 00:09:59;;;;;;;6.63;5.23;;;;;;;;;;5034929;28;20239;-75
2022/06/05 00:12:38;;;;;;;7.63;5.55;;;;;;;;;;5038136;28;20433;-74
2022/06/05 00:15:03;;;;;;;7.60;5.50;;;;;;;;;;5035254;28;20202;-74
2022/06/05 00:17:29;;;;;;;6.85;5.50;;;;;;;;;;5035053;28;20674;-74
2022/06/05 00:19:55;;;;;;;7.93;5.95;;;;;;;;;;5044276;28;20178;-74
2022/06/05 00:22:20;;;;;;;10.73;5.30;;;;;;;;;;5032360;28;20641;-74
2022/06/05 00:24:46;;;;;;;9.85;5.93;;;;;;;;;;5046142;28;20197;-73
2022/06/05 00:27:28;;;;;;;6.95;5.50;;;;;;;;;;5041209;28;20268;-74
2022/06/05 00:29:53;;;;;;;7.28;5.45;;;;;;;;;;5042697;28;20224;-72
2022/06/05 00:32:29;;;;;;;7.28;5.65;;;;;;;;;;5047451;28;20693;-74
2022/06/05 00:34:55;;;;;;;9.45;5.40;;;;;;;;;;5042642;28;20682;-74
2022/06/05 00:37:28;;;;;;;9.32;5.60;;;;;;;;;;5040531;28;20273;-74
2022/06/05 00:40:00;;;;;;;8.13;5.90;;;;;;;;;;5050398;28;20681;-75
2022/06/05 00:42:27;;;;;;;8.85;6.00;;;;;;;;;;5041107;28;20272;-72
2022/06/05 00:44:54;;;;;;;8.00;6.32;;;;;;;;;;5048016;28;20235;-75
2022/06/05 00:47:21;;;;;;;11.85;6.65;;;;;;;;;;5032604;28;20261;-74
2022/06/05 00:49:46;;;;;;;7.38;5.70;;;;;;;;;;5044479;28;20170;-72
2022/06/05 00:52:13;;;;;;;11.13;5.28;;;;;;;;;;5038899;28;20185;-73
2022/06/05 00:54:38;;;;;;;8.88;5.75;;;;;;;;;;5046367;28;20177;-73
2022/06/05 00:57:05;;;;;;;6.50;5.55;;;;;;;;;;5040237;28;20184;-73
2022/06/05 00:59:30;;;;;;;7.07;5.20;;;;;;;;;;5042078;28;20251;-72
2022/06/05 01:01:56;;;;;;;6.28;5.28;;;;;;;;;;5043373;28;20738;-73
2022/06/05 01:04:21;;;;;;;9.25;6.07;;;;;;;;;;5035150;28;20181;-73
2022/06/05 01:06:47;;;;;;;8.80;6.25;;;;;;;;;;5035487;28;20177;-72
2022/06/05 01:09:12;;;;;;;10.38;5.95;;;;;;;;;;5040889;28;20186;-73
2022/06/05 01:11:40;;;;;;;7.38;5.72;;;;;;;;;;5044606;28;20189;-72
2022/06/05 01:14:05;;;;;;;7.22;5.88;;;;;;;;;;5040277;28;20244;-74
2022/06/05 01:16:38;;;;;;;9.90;5.82;;;;;;;;;;5045141;28;20563;-73
2022/06/05 01:19:10;;;;;;;7.82;5.95;;;;;;;;;;5037010;28;20185;-73
2022/06/05 01:21:42;;;;;;;7.72;6.95;;;;;;;;;;5033828;28;20177;-73
2022/06/05 01:24:28;;;;;;;8.90;6.20;;;;;;;;;;5044460;28;20173;-72
2022/06/05 01:26:56;;;;;;;6.20;5.60;;;;;;;;;;5044193;28;22001;-74
2022/06/05 01:29:25;;;;;;;7.40;6.00;;;;;;;;;;5042856;28;20175;-74
2022/06/05 01:31:55;;;;;;;9.90;6.78;;;;;;;;;;5039679;28;20214;-74
2022/06/05 01:34:29;;;;;;;8.75;6.22;;;;;;;;;;5044659;28;20228;-72
2022/06/05 01:36:57;;;;;;;7.03;6.15;;;;;;;;;;5040187;28;20256;-72
2022/06/05 01:39:29;;;;;;;8.00;6.15;;;;;;;;;;5039604;28;20714;-72
2022/06/05 01:41:56;;;;;;;9.85;6.15;;;;;;;;;;5042881;28;20201;-72
2022/06/05 01:44:43;;;;;;;14.27;7.65;;;;;;;;;;5045554;28;20181;-75
2022/06/05 01:47:15;;;;;;;8.40;5.93;;;;;;;;;;5043328;28;20650;-74
2022/06/05 01:49:44;;;;;;;8.27;6.70;;;;;;;;;;5037071;28;20190;-74
2022/06/05 01:52:25;;;;;;;8.43;6.18;;;;;;;;;;5034715;28;20185;-75
2022/06/05 01:54:50;;;;;;;8.02;6.18;;;;;;;;;;5035870;28;20274;-74
2022/06/05 01:57:18;;;;;;;6.85;6.07;;;;;;;;;;5036916;28;20659;-74
2022/06/05 02:00:12;;;;;;;9.18;7.00;;;;;;;;;;5038739;28;20931;-76
2022/06/05 02:02:51;;;;;;;9.38;6.53;;;;;;;;;;5042309;28;20220;-74
2022/06/05 02:05:22;;;;;;;10.65;6.05;;;;;;;;;;5040043;28;20197;-74
2022/06/05 02:07:48;;;;;;;9.75;7.88;;;;;;;;;;5039520;28;20213;-75
2022/06/05 02:10:37;;;;;;;9.63;6.78;;;;;;;;;;5041686;28;20197;-73
2022/06/05 02:13:02;;;;;;;8.90;6.22;;;;;;;;;;5035235;28;20194;-73
2022/06/05 02:15:28;;;;;;;7.82;6.35;;;;;;;;;;5040172;28;20569;-74
2022/06/05 02:17:55;;;;;;;6.80;6.07;;;;;;;;;;5038456;28;20656;-74
2022/06/05 02:20:20;;;;;;;7.20;6.38;;;;;;;;;;5043434;28;20264;-74
2022/06/05 02:22:47;;;;;;;6.50;5.85;;;;;;;;;;5044983;28;20335;-73
2022/06/05 02:25:14;;;;;;;8.20;6.63;;;;;;;;;;5039860;28;20398;-74
2022/06/05 02:27:39;;;;;;;9.82;6.57;;;;;;;;;;5040026;28;20193;-72
2022/06/05 02:30:06;;;;;;;9.00;6.50;;;;;;;;;;5036449;28;20583;-72
2022/06/05 02:32:42;;;;;;;8.52;6.30;;;;;;;;;;5041502;28;20272;-74
2022/06/05 02:35:26;;;;;;;6.55;5.88;;;;;;;;;;5046063;28;20203;-74
2022/06/05 02:37:51;;;;;;;7.40;5.70;;;;;;;;;;5039187;28;20178;-74
2022/06/05 02:40:40;;;;;;;12.05;7.97;;;;;;;;;;5047211;28;20643;-73
2022/06/05 02:43:11;;;;;;;7.45;6.75;;;;;;;;;;5041188;28;20699;-74
2022/06/05 02:45:49;;;;;;;12.98;7.30;;;;;;;;;;5030133;28;20421;-72
2022/06/05 02:48:19;;;;;;;9.80;7.07;;;;;;;;;;5016126;28;20185;-73
2022/06/05 02:50:50;;;;;;;8.55;6.70;;;;;;;;;;5016970;28;20803;-73
2022/06/05 02:53:16;;;;;;;9.35;7.30;;;;;;;;;;5014669;28;20220;-73
2022/06/05 02:55:42;;;;;;;9.30;7.20;;;;;;;;;;5015376;28;20276;-73
2022/06/05 02:58:07;;;;;;;9.88;7.50;;;;;;;;;;5016427;28;20413;-73
2022/06/05 03:00:33;;;;;;;8.98;7.45;;;;;;;;;;5014955;28;20190;-73
2022/06/05 03:05:43;;;;;;;8.77;7.25;;;;;;;;;;5018209;28;20208;-72
2022/06/05 03:08:10;;;;;;;8.27;7.38;;;;;;;;;;5013895;28;20174;-75
2022/06/05 03:10:35;;;;;;;12.60;7.90;;;;;;;;;;5023046;28;20513;-75
2022/06/05 03:13:01;;;;;;;16.38;7.28;;;;;;;;;;5021498;28;20186;-75
2022/06/05 03:15:26;;;;;;;10.45;8.15;;;;;;;;;;5019689;28;20226;-74
2022/06/05 03:17:52;;;;;;;9.63;7.68;;;;;;;;;;5027605;28;20189;-74
2022/06/05 03:20:17;;;;;;;9.82;8.05;;;;;;;;;;5020165;28;20263;-74
2022/06/05 03:22:43;;;;;;;11.32;6.82;;;;;;;;;;5028704;28;20205;-74
2022/06/05 03:25:11;;;;;;;11.20;7.95;;;;;;;;;;5019318;28;20206;-73
2022/06/05 03:27:36;;;;;;;9.18;8.02;;;;;;;;;;5020034;28;20186;-73
2022/06/05 03:30:01;;;;;;;12.38;7.63;;;;;;;;;;5019453;28;20182;-72
2022/06/05 03:32:27;;;;;;;11.85;8.43;;;;;;;;;;5019502;28;21385;-73
2022/06/05 03:34:53;;;;;;;12.85;8.32;;;;;;;;;;5021168;28;20206;-73
2022/06/05 03:37:19;;;;;;;10.10;8.35;;;;;;;;;;5021870;28;20197;-73
2022/06/05 03:39:45;;;;;;;8.35;7.35;;;;;;;;;;5015920;28;20285;-73
2022/06/05 03:42:10;;;;;;;12.90;8.27;;;;;;;;;;5019976;28;20631;-73
2022/06/05 03:44:40;;;;;;;13.18;8.88;;;;;;;;;;5018956;28;20213;-73
2022/06/05 03:47:05;;;;;;;9.80;8.32;;;;;;;;;;5026706;28;20206;-73
2022/06/05 03:49:31;;;;;;;11.32;7.65;;;;;;;;;;5020076;28;20272;-72
2022/06/05 03:51:56;;;;;;;10.65;7.85;;;;;;;;;;5018722;28;20178;-73
2022/06/05 03:54:21;;;;;;;11.50;8.27;;;;;;;;;;5018822;28;20647;-73
2022/06/05 03:56:47;;;;;;;11.55;7.50;;;;;;;;;;5019331;28;20864;-73
2022/06/05 03:59:12;;;;;;;12.18;7.97;;;;;;;;;;5019814;28;20190;-73
2022/06/05 04:01:37;;;;;;;22.98;7.95;;;;;;;;;;5020744;28;20199;-73
2022/06/05 04:04:03;;;;;;;12.82;8.98;;;;;;;;;;5022077;28;20194;-74
2022/06/05 04:06:29;;;;;;;13.80;8.18;;;;;;;;;;5020784;28;20220;-73
2022/06/05 04:08:58;;;;;;;9.88;7.80;;;;;;;;;;5020746;28;20628;-73
2022/06/05 04:11:24;;;;;;;12.15;8.80;;;;;;;;;;5025360;28;20204;-72
2022/06/05 04:13:49;;;;;;;9.90;8.02;;;;;;;;;;5021804;28;20660;-74
2022/06/05 04:16:17;;;;;;;12.68;8.65;;;;;;;;;;5019703;28;20237;-72
2022/06/05 04:18:42;;;;;;;10.85;9.27;;;;;;;;;;5029829;28;20177;-73
2022/06/05 04:21:09;;;;;;;14.45;9.93;;;;;;;;;;5018612;28;20660;-72
2022/06/05 04:23:35;;;;;;;10.60;9.13;;;;;;;;;;5021236;28;20210;-72
2022/06/05 04:26:00;;;;;;;13.48;9.20;;;;;;;;;;5019819;28;20190;-72
2022/06/05 04:28:26;;;;;;;12.98;8.65;;;;;;;;;;5019927;28;20662;-72
2022/06/05 04:30:51;;;;;;;11.05;8.07;;;;;;;;;;5019949;28;20188;-74
2022/06/05 04:33:16;;;;;;;10.65;8.25;;;;;;;;;;5020396;28;20178;-75
2022/06/05 04:35:41;;;;;;;12.15;8.80;;;;;;;;;;5022966;28;20320;-72
2022/06/05 04:38:06;;;;;;;10.70;8.73;;;;;;;;;;5017582;28;20660;-73
2022/06/05 04:40:32;;;;;;;11.07;8.60;;;;;;;;;;5024944;28;20193;-72
2022/06/05 04:42:57;;;;;;;14.50;9.60;;;;;;;;;;5020259;28;20213;-74
2022/06/05 04:45:22;;;;;;;12.45;8.43;;;;;;;;;;5020204;28;20206;-74
2022/06/05 04:47:47;;;;;;;12.38;9.85;;;;;;;;;;5019107;28;20205;-74
2022/06/05 04:50:13;;;;;;;15.50;10.20;;;;;;;;;;5021219;28;20186;-73
2022/06/05 04:52:38;;;;;;;15.57;9.10;;;;;;;;;;5019117;28;20677;-74
2022/06/05 04:55:04;;;;;;;12.27;9.15;;;;;;;;;;5019818;28;20210;-74
2022/06/05 04:57:29;;;;;;;11.13;9.65;;;;;;;;;;5017890;28;20442;-74
2022/06/05 04:59:54;;;;;;;10.68;9.25;;;;;;;;;;5020513;28;20214;-73
2022/06/05 05:02:20;;;;;;;10.95;8.45;;;;;;;;;;5025971;28;20210;-72
2022/06/05 05:04:48;;;;;;;14.93;10.98;;;;;;;;;;5022697;28;20713;-72
2022/06/05 05:07:14;;;;;;;11.02;9.10;;;;;;;;;;5019047;28;20610;-72
2022/06/05 05:09:39;;;;;;;11.40;9.35;;;;;;;;;;5017368;28;20186;-72
2022/06/05 05:12:05;;;;;;;15.57;9.93;;;;;;;;;;5032876;28;20197;-73
2022/06/05 05:14:30;;;;;;;10.82;8.85;;;;;;;;;;5017623;28;20733;-74
2022/06/05 05:16:56;;;;;;;17.33;10.05;;;;;;;;;;5018888;28;20253;-74
2022/06/05 05:19:21;;;;;;;9.55;8.23;;;;;;;;;;5018376;28;20194;-74
2022/06/05 05:21:46;;;;;;;10.27;8.98;;;;;;;;;;5020941;28;20686;-73
2022/06/05 05:24:11;;;;;;;10.98;9.20;;;;;;;;;;5018542;28;20186;-73
2022/06/05 05:26:36;;;;;;;14.75;9.30;;;;;;;;;;5022287;28;20207;-73
2022/06/05 05:29:03;;;;;;;15.02;9.98;;;;;;;;;;5019007;28;20186;-73
2022/06/05 05:31:29;;;;;;;14.55;9.85;;;;;;;;;;5017541;28;20209;-73
2022/06/05 05:33:55;;;;;;;16.67;11.07;;;;;;;;;;5021300;28;20714;-73
2022/06/05 05:36:20;;;;;;;13.07;9.50;;;;;;;;;;5020859;28;20197;-73
2022/06/05 05:44:14;;;;;;;13.55;9.48;;;;;;;;;;5018499;28;20217;-73
2022/06/05 05:46:40;;;;;;;12.10;9.30;;;;;;;;;;5022450;28;20332;-73
2022/06/05 05:49:05;;;;;;;13.10;9.15;;;;;;;;;;5017326;28;20179;-73
2022/06/05 05:51:31;;;;;;;12.05;10.07;;;;;;;;;;5015078;28;20607;-73
2022/06/05 05:53:56;;;;;;;12.45;10.10;;;;;;;;;;5019460;28;20174;-73
2022/06/05 05:56:21;;;;;;;15.40;10.30;;;;;;;;;;5023923;28;20637;-73
2022/06/05 05:58:46;;;;;;;13.35;10.48;;;;;;;;;;5015099;28;21479;-74
2022/06/05 06:01:12;;;;;;;11.35;9.52;;;;;;;;;;5018720;28;20198;-75
2022/06/05 06:03:37;;;;;;;13.77;9.82;;;;;;;;;;5018869;28;20206;-72
2022/06/05 06:06:03;;;;;;;11.63;9.07;;;;;;;;;;5021155;28;20209;-75
2022/06/05 06:08:29;;;;;;;12.38;9.75;;;;;;;;;;5017852;28;20536;-73
2022/06/05 06:10:54;;;;;;;12.10;9.77;;;;;;;;;;5024448;28;20249;-73
2022/06/05 06:13:19;;;;;;;13.18;10.25;;;;;;;;;;5020312;28;20613;-73
2022/06/05 06:15:45;;;;;;;12.38;9.45;;;;;;;;;;5016132;28;20785;-73
2022/06/05 06:18:10;;;;;;;15.75;10.32;;;;;;;;;;5016550;28;20877;-73
2022/06/05 06:20:35;;;;;;;12.50;10.25;;;;;;;;;;5016789;28;20185;-73
2022/06/05 06:23:00;;;;;;;13.15;10.07;;;;;;;;;;5024196;28;20882;-73
2022/06/05 06:25:25;;;;;;;10.93;9.82;;;;;;;;;;5016809;28;20193;-73
2022/06/05 06:27:51;;;;;;;15.43;10.63;;;;;;;;;;5021417;28;20252;-73
2022/06/05 06:30:16;;;;;;;15.52;11.23;;;;;;;;;;5015179;28;20174;-73
2022/06/05 06:32:41;;;;;;;12.45;9.95;;;;;;;;;;5022247;28;20232;-73
2022/06/05 06:35:07;;;;;;;14.65;10.40;;;;;;;;;;5020292;28;20283;-73
2022/06/05 06:37:32;;;;;;;14.60;10.43;;;;;;;;;;5021490;28;20193;-73
2022/06/05 06:39:57;;;;;;;13.05;9.50;;;;;;;;;;5021455;28;20193;-73
2022/06/05 06:42:22;;;;;;;11.80;9.77;;;;;;;;;;5018769;28;20197;-73
2022/06/05 06:44:48;;;;;;;13.27;9.45;;;;;;;;;;5021537;28;20775;-73
2022/06/05 06:47:13;;;;;;;11.68;9.73;;;;;;;;;;5023275;28;20199;-73
2022/06/05 06:49:38;;;;;;;20.75;12.18;;;;;;;;;;5023497;28;20186;-73
2022/06/05 06:52:03;;;;;;;10.93;9.82;;;;;;;;;;5027783;28;20633;-73
2022/06/05 06:54:29;;;;;;;13.50;10.88;;;;;;;;;;5024389;28;20185;-73
2022/06/05 06:56:54;;;;;;;11.93;9.75;;;;;;;;;;5024017;28;20602;-73
2022/06/05 06:59:20;;;;;;;12.18;9.95;;;;;;;;;;5024239;28;20213;-73
2022/06/05 07:01:45;;;;;;;12.02;9.98;;;;;;;;;;5024409;28;20178;-73
2022/06/05 07:04:11;;;;;;;12.90;9.93;;;;;;;;;;5026290;28;20265;-74
2022/06/05 07:06:36;;;;;;;11.48;9.82;;;;;;;;;;5026882;28;20255;-74
2022/06/05 07:09:01;;;;;;;12.27;10.15;;;;;;;;;;5021958;28;20235;-73
2022/06/05 07:11:26;;;;;;;12.25;9.43;;;;;;;;;;5025791;28;20269;-73
2022/06/05 07:13:52;;;;;;;12.75;10.25;;;;;;;;;;5026280;28;20272;-73
2022/06/05 07:16:17;;;;;;;12.60;9.90;;;;;;;;;;5020913;28;20214;-73
2022/06/05 07:18:43;;;;;;;11.57;9.60;;;;;;;;;;5019746;28;20281;-73
2022/06/05 07:21:10;;;;;;;12.82;10.13;;;;;;;;;;5022172;28;20312;-73
2022/06/05 07:23:35;;;;;;;11.43;8.73;;;;;;;;;;5021918;28;20205;-73
2022/06/05 07:26:00;;;;;;;10.52;9.43;;;;;;;;;;5024090;28;20591;-73
2022/06/05 07:28:25;;;;;;;12.35;10.35;;;;;;;;;;5025497;28;20178;-73
2022/06/05 07:30:52;;;;;;;10.98;9.00;;;;;;;;;;5020517;28;20236;-73
2022/06/05 07:33:17;;;;;;;11.20;9.32;;;;;;;;;;5019802;28;20240;-74
2022/06/05 07:35:42;;;;;;;13.60;9.88;;;;;;;;;;5024273;28;20197;-72
2022/06/05 07:38:08;;;;;;;10.40;9.32;;;;;;;;;;5017736;28;20191;-74
2022/06/05 07:40:37;;;;;;;11.50;10.13;;;;;;;;;;5020380;28;20220;-74
2022/06/05 07:43:02;;;;;;;11.88;9.27;;;;;;;;;;5021963;28;20213;-74
2022/06/05 07:45:27;;;;;;;12.50;9.10;;;;;;;;;;5021152;28;20574;-74
2022/06/05 07:47:53;;;;;;;10.80;8.77;;;;;;;;;;5020502;28;20187;-72
2022/06/05 07:50:18;;;;;;;9.52;7.95;;;;;;;;;;5021297;28;20189;-73
2022/06/05 07:55:27;;;;;;;11.93;9.20;;;;;;;;;;5031430;28;20209;-74
2022/06/05 07:57:52;;;;;;;9.95;8.70;;;;;;;;;;5021583;28;20182;-72
2022/06/05 08:00:18;;;;;;;10.45;8.07;;;;;;;;;;5019741;28;20706;-72
2022/06/05 08:02:43;;;;;;;10.43;8.27;;;;;;;;;;5018828;28;20892;-72
2022/06/05 08:05:09;;;;;;;10.35;7.90;;;;;;;;;;5023985;28;20629;-72
2022/06/05 08:07:34;;;;;;;9.45;7.72;;;;;;;;;;5019066;28;20184;-73
2022/06/05 08:10:00;;;;;;;7.72;7.03;;;;;;;;;;5023788;28;20645;-72
2022/06/05 08:12:29;;;;;;;8.52;7.00;;;;;;;;;;5023619;28;20563;-72
2022/06/05 08:14:55;;;;;;;8.35;7.55;;;;;;;;;;5020756;28;20210;-72
2022/06/05 08:17:22;;;;;;;8.68;7.32;;;;;;;;;;5019282;28;20186;-72
2022/06/05 08:19:47;;;;;;;8.50;7.70;;;;;;;;;;5018401;28;20177;-72
2022/06/05 08:22:13;;;;;;;8.80;7.90;;;;;;;;;;5018590;28;20209;-72
2022/06/05 08:24:39;;;;;;;8.80;7.43;;;;;;;;;;5025807;28;20178;-72
2022/06/05 08:27:05;;;;;;;7.82;7.00;;;;;;;;;;5019710;28;20201;-72
2022/06/05 08:29:30;;;;;;;7.95;7.20;;;;;;;;;;5017529;28;20316;-72
2022/06/05 08:31:56;;;;;;;8.27;6.60;;;;;;;;;;5018961;28;21025;-72
2022/06/05 08:34:21;;;;;;;8.97;6.80;;;;;;;;;;5024931;28;20190;-72
2022/06/05 08:36:46;;;;;;;10.60;7.97;;;;;;;;;;5018121;28;21039;-71
2022/06/05 08:42:12;;;;;;;6.65;6.05;;;;;;;;;;5016940;28;20185;-72
2022/06/05 08:44:40;;;;;;;8.80;7.90;;;;;;;;;;5018686;28;20392;-72
2022/06/05 08:47:11;;;;;;;8.00;6.65;;;;;;;;;;5017877;28;20824;-72
2022/06/05 08:49:47;;;;;;;8.32;6.78;;;;;;;;;;5017033;28;20277;-72
2022/06/05 08:52:20;;;;;;;18.30;6.70;;;;;;;;;;5018176;28;20753;-72
2022/06/05 08:54:58;;;;;;;8.32;7.28;;;;;;;;;;5018651;28;20221;-73
2022/06/05 08:57:23;;;;;;;7.70;7.00;;;;;;;;;;5019158;28;20677;-72
2022/06/05 08:59:55;;;;;;;9.97;7.60;;;;;;;;;;5017003;28;20190;-71
2022/06/05 09:02:23;;;;;;;8.25;6.88;;;;;;;;;;5019340;28;20972;-71
2022/06/05 09:05:06;;;;;;;7.65;6.90;;;;;;;;;;5019371;28;20675;-71
2022/06/05 09:07:33;;;;;;;7.57;6.60;;;;;;;;;;5025898;28;20297;-71
2022/06/05 09:10:06;;;;;;;8.10;7.05;;;;;;;;;;5020678;28;20177;-73
2022/06/05 09:12:44;;;;;;;8.00;7.20;;;;;;;;;;5036420;28;20280;-72
2022/06/05 09:15:21;;;;;;;8.38;6.88;;;;;;;;;;5020917;28;20263;-72
2022/06/05 09:17:53;;;;;;;7.55;6.95;;;;;;;;;;5016668;28;20248;-72
2022/06/05 09:20:18;;;;;;;7.80;7.10;;;;;;;;;;5019142;28;20187;-73
2022/06/05 09:22:54;;;;;;;8.20;7.40;;;;;;;;;;5025513;28;20202;-73
2022/06/05 09:25:22;;;;;;;7.40;6.80;;;;;;;;;;5016170;28;20719;-72
2022/06/05 09:27:50;;;;;;;7.63;6.72;;;;;;;;;;5016608;28;20205;-73
2022/06/05 09:30:15;;;;;;;7.63;6.85;;;;;;;;;;5017940;28;20185;-73
2022/06/05 09:32:58;;;;;;;7.97;7.17;;;;;;;;;;5023484;28;20178;-72
2022/06/05 09:35:26;;;;;;;7.80;7.10;;;;;;;;;;5019044;28;20447;-72
2022/06/05 09:37:56;;;;;;;8.07;7.38;;;;;;;;;;5016899;28;20189;-73
2022/06/05 09:40:33;;;;;;;7.93;7.32;;;;;;;;;;5026299;28;20281;-73
2022/06/05 09:43:18;;;;;;;7.65;6.85;;;;;;;;;;5016174;28;21509;-73
2022/06/05 09:45:52;;;;;;;7.78;7.07;;;;;;;;;;5017553;28;20310;-72
2022/06/05 09:48:17;;;;;;;7.55;6.85;;;;;;;;;;5016823;28;20242;-73
2022/06/05 09:50:42;;;;;;;8.07;7.27;;;;;;;;;;5017314;28;20182;-73
2022/06/05 09:53:15;;;;;;;7.57;6.88;;;;;;;;;;5017619;28;20927;-73
2022/06/05 09:55:46;;;;;;;7.50;6.78;;;;;;;;;;5018528;28;20194;-73
2022/06/05 09:58:31;;;;;;;7.38;6.78;;;;;;;;;;5021117;28;20194;-73
2022/06/05 10:01:15;;;;;;;9.00;6.85;;;;;;;;;;5017559;28;20728;-73
2022/06/05 10:03:42;;;;;;;8.05;7.35;;;;;;;;;;5020458;28;20210;-73
2022/06/05 10:06:11;;;;;;;7.70;7.03;;;;;;;;;;5017931;28;20255;-72
2022/06/05 10:08:38;;;;;;;7.85;7.07;;;;;;;;;;5019814;28;20847;-72
2022/06/05 10:11:08;;;;;;;7.30;6.70;;;;;;;;;;5018837;28;20198;-73
2022/06/05 10:13:48;;;;;;;8.07;7.38;;;;;;;;;;5018512;28;20186;-72
2022/06/05 10:16:19;;;;;;;8.20;7.50;;;;;;;;;;5014843;28;20280;-72
2022/06/05 10:18:47;;;;;;;7.10;6.50;;;;;;;;;;5018282;28;20174;-72
2022/06/05 10:21:14;;;;;;;8.73;7.88;;;;;;;;;;5017008;28;20178;-72
2022/06/05 10:23:51;;;;;;;7.78;7.05;;;;;;;;;;5016834;28;20205;-72
2022/06/05 10:26:17;;;;;;;9.60;7.57;;;;;;;;;;5017534;28;20690;-72
2022/06/05 10:28:42;;;;;;;7.45;6.63;;;;;;;;;;5018119;28;20179;-72
2022/06/05 10:31:08;;;;;;;7.75;7.03;;;;;;;;;;5016775;28;20652;-72
2022/06/05 10:33:39;;;;;;;7.13;6.50;;;;;;;;;;5020680;28;20186;-72
2022/06/05 10:36:10;;;;;;;8.10;7.40;;;;;;;;;;5015839;28;20443;-72
2022/06/05 10:38:42;;;;;;;7.60;6.90;;;;;;;;;;5013267;28;20258;-72
2022/06/05 10:41:16;;;;;;;7.72;7.15;;;;;;;;;;5017176;28;20651;-72
2022/06/05 10:43:42;;;;;;;8.13;7.43;;;;;;;;;;5016103;28;20251;-73
2022/06/05 10:46:27;;;;;;;8.10;7.40;;;;;;;;;;5014403;28;20201;-73
2022/06/05 10:49:09;;;;;;;7.65;6.90;;;;;;;;;;5016006;28;20182;-73
2022/06/05 10:51:50;;;;;;;7.70;6.95;;;;;;;;;;5017521;28;20196;-73
2022/06/05 10:54:34;;;;;;;7.47;6.45;;;;;;;;;;5016568;28;20265;-73
2022/06/05 10:56:59;;;;;;;8.50;7.70;;;;;;;;;;5015549;28;20197;-73
2022/06/05 10:59:27;;;;;;;7.43;6.80;;;;;;;;;;5016669;28;20572;-73
2022/06/05 11:01:56;;;;;;;8.07;7.28;;;;;;;;;;5022184;28;20442;-73
2022/06/05 11:04:33;;;;;;;7.63;6.88;;;;;;;;;;5019720;28;20189;-72
2022/06/05 11:07:13;;;;;;;8.38;7.50;;;;;;;;;;5016878;28;20185;-73
2022/06/05 11:09:42;;;;;;;7.93;7.20;;;;;;;;;;5019242;28;20185;-72
2022/06/05 11:15:03;;;;;;;7.85;6.82;;;;;;;;;;5038607;28;20240;-73
2022/06/05 11:17:41;;;;;;;9.15;8.25;;;;;;;;;;5034866;28;20260;-73
2022/06/05 11:20:21;;;;;;;7.68;7.07;;;;;;;;;;5019313;28;20551;-73
2022/06/05 11:22:53;;;;;;;9.48;7.75;;;;;;;;;;5021043;28;20756;-73
2022/06/05 11:25:25;;;;;;;8.27;7.65;;;;;;;;;;5016868;28;20194;-72
2022/06/05 11:28:09;;;;;;;8.10;7.40;;;;;;;;;;5021051;28;20179;-75
2022/06/05 11:30:53;;;;;;;8.70;7.97;;;;;;;;;;5024469;28;20190;-72
2022/06/05 11:33:23;;;;;;;8.43;7.63;;;;;;;;;;5023307;28;20268;-72
2022/06/05 11:36:03;;;;;;;8.93;8.23;;;;;;;;;;5033718;28;20201;-73
2022/06/05 11:38:40;;;;;;;9.55;8.75;;;;;;;;;;5019481;28;20735;-73
2022/06/05 11:41:17;;;;;;;8.88;8.18;;;;;;;;;;5018249;28;20194;-73
2022/06/05 11:43:42;;;;;;;10.23;9.30;;;;;;;;;;5019555;28;20339;-73
2022/06/05 11:46:10;;;;;;;9.88;9.07;;;;;;;;;;5019596;28;20206;-73
2022/06/05 11:48:39;;;;;;;8.68;7.97;;;;;;;;;;5021723;28;20174;-73
2022/06/05 11:51:21;;;;;;;8.45;7.53;;;;;;;;;;5018454;28;20673;-73
2022/06/05 11:53:51;;;;;;;9.75;8.85;;;;;;;;;;5021739;28;20664;-73
2022/06/05 11:56:23;;;;;;;9.02;8.13;;;;;;;;;;5021022;28;20206;-73
2022/06/05 11:58:54;;;;;;;10.50;9.40;;;;;;;;;;5019844;28;20182;-73
2022/06/05 12:01:28;;;;;;;9.95;8.95;;;;;;;;;;5019875;28;20205;-73
2022/06/05 12:03:57;;;;;;;8.73;8.02;;;;;;;;;;5022503;28;20205;-73
2022/06/05 12:06:39;;;;;;;10.65;9.70;;;;;;;;;;5019102;28;20204;-73
2022/06/05 12:09:10;;;;;;;10.05;9.07;;;;;;;;;;5022388;28;20264;-72
2022/06/05 12:11:40;;;;;;;10.63;9.63;;;;;;;;;;5024882;28;20193;-73
2022/06/05 12:14:11;;;;;;;9.05;8.35;;;;;;;;;;5018754;28;20261;-72
2022/06/05 12:16:45;;;;;;;10.15;9.35;;;;;;;;;;5020153;28;20206;-73
2022/06/05 12:19:17;;;;;;;11.45;10.00;;;;;;;;;;5020929;28;20264;-73
2022/06/05 12:21:55;;;;;;;10.77;9.70;;;;;;;;;;5018954;28;20178;-73
2022/06/05 12:24:24;;;;;;;10.25;9.35;;;;;;;;;;5017724;28;20174;-73
2022/06/05 12:27:05;;;;;;;10.00;9.20;;;;;;;;;;5015262;28;20209;-73
2022/06/05 12:29:32;;;;;;;11.73;10.70;;;;;;;;;;5020618;28;20292;-74
2022/06/05 12:32:08;;;;;;;11.00;10.10;;;;;;;;;;5018026;28;20818;-73
2022/06/05 12:34:37;;;;;;;11.85;10.75;;;;;;;;;;5023960;28;20176;-71
2022/06/05 12:37:05;;;;;;;13.02;11.82;;;;;;;;;;5027784;28;20349;-72
2022/06/05 12:39:41;;;;;;;11.65;10.57;;;;;;;;;;5023040;28;20183;-72
2022/06/05 12:42:12;;;;;;;11.27;10.38;;;;;;;;;;5024471;28;20225;-72
2022/06/05 12:44:43;;;;;;;11.15;10.10;;;;;;;;;;5016417;28;20682;-72
2022/06/05 12:47:11;;;;;;;12.15;11.15;;;;;;;;;;5016643;28;20178;-75
2022/06/05 12:49:39;;;;;;;11.93;10.82;;;;;;;;;;5024573;28;20339;-73
2022/06/05 12:52:05;;;;;;;12.52;11.32;;;;;;;;;;5019165;28;20220;-72
2022/06/05 12:54:45;;;;;;;12.32;11.25;;;;;;;;;;5025936;28;20265;-72
2022/06/05 12:57:14;;;;;;;11.73;10.80;;;;;;;;;;5018604;28;20196;-73
2022/06/05 12:59:40;;;;;;;14.10;12.48;;;;;;;;;;5028925;28;20208;-73
2022/06/05 13:02:20;;;;;;;12.00;10.93;;;;;;;;;;5019408;28;20177;-74
2022/06/05 13:04:48;;;;;;;14.32;12.98;;;;;;;;;;5020934;28;20501;-73
2022/06/05 13:07:20;;;;;;;14.15;12.73;;;;;;;;;;5018982;28;20746;-73
2022/06/05 13:09:47;;;;;;;15.25;13.75;;;;;;;;;;5017446;28;20183;-73
2022/06/05 13:12:13;;;;;;;15.75;14.25;;;;;;;;;;5022455;28;20182;-73
2022/06/05 13:14:47;;;;;;;15.67;14.10;;;;;;;;;;5023141;28;20193;-73
2022/06/05 13:17:12;;;;;;;16.65;15.05;;;;;;;;;;5016751;28;20459;-73
2022/06/05 13:19:40;;;;;;;15.63;14.23;;;;;;;;;;5017858;28;20321;-74
2022/06/05 13:22:09;;;;;;;16.92;15.50;;;;;;;;;;5020472;28;20518;-73
2022/06/05 13:24:35;;;;;;;17.00;15.23;;;;;;;;;;5023437;28;20181;-74
2022/06/05 13:27:18;;;;;;;16.95;15.32;;;;;;;;;;5034657;28;20182;-73
2022/06/05 13:30:07;;;;;;;16.85;15.25;;;;;;;;;;5028168;28;20194;-73
2022/06/05 13:32:52;;;;;;;15.63;13.73;;;;;;;;;;5038215;28;20194;-73
2022/06/05 13:35:26;;;;;;;16.80;15.30;;;;;;;;;;5048583;28;20252;-74
2022/06/05 13:38:02;;;;;;;16.95;15.32;;;;;;;;;;5042375;28;20173;-73
2022/06/05 13:40:47;;;;;;;17.23;15.15;;;;;;;;;;5040229;28;20184;-73
2022/06/05 13:43:33;;;;;;;16.27;14.75;;;;;;;;;;5038286;28;20745;-73
2022/06/05 13:46:01;;;;;;;16.92;15.35;;;;;;;;;;5036454;28;20569;-73
2022/06/05 13:48:47;;;;;;;16.63;14.95;;;;;;;;;;5036068;28;20184;-73
2022/06/05 13:51:12;;;;;;;19.20;17.27;;;;;;;;;;5040349;28;20194;-74
2022/06/05 13:53:47;;;;;;;19.20;16.63;;;;;;;;;;5036309;28;20697;-73
2022/06/05 13:56:18;;;;;;;19.00;17.10;;;;;;;;;;5036504;28;20449;-74
2022/06/05 13:58:59;;;;;;;18.88;17.02;;;;;;;;;;5042730;28;20193;-73
2022/06/05 14:01:38;;;;;;;18.67;16.88;;;;;;;;;;5037840;28;20218;-74
2022/06/05 14:04:18;;;;;;;18.48;16.58;;;;;;;;;;5036996;28;20208;-74
2022/06/05 14:06:48;;;;;;;19.27;17.27;;;;;;;;;;5042189;28;20192;-74
2022/06/05 14:09:32;;;;;;;18.80;16.90;;;;;;;;;;5037166;28;20175;-74
2022/06/05 14:11:57;;;;;;;20.63;18.55;;;;;;;;;;5032579;28;20192;-73
2022/06/05 14:14:41;;;;;;;20.02;17.90;;;;;;;;;;5034619;28;20198;-73
2022/06/05 14:17:13;;;;;;;19.30;17.42;;;;;;;;;;5032540;28;20182;-73
2022/06/05 14:19:38;;;;;;;19.90;17.77;;;;;;;;;;5032778;28;20476;-73
2022/06/05 14:22:07;;;;;;;21.85;19.55;;;;;;;;;;5042515;28;20173;-73
2022/06/05 14:24:41;;;;;;;18.92;17.23;;;;;;;;;;5037073;28;20186;-73
2022/06/05 14:27:07;;;;;;;19.38;17.40;;;;;;;;;;5034816;28;20170;-74
2022/06/05 14:29:38;;;;;;;19.10;17.10;;;;;;;;;;5030350;28;20189;-74
2022/06/05 14:32:06;;;;;;;20.67;18.60;;;;;;;;;;5036144;28;20704;-73
2022/06/05 14:34:33;;;;;;;20.75;18.65;;;;;;;;;;5034519;28;20185;-73
2022/06/05 14:37:05;;;;;;;20.92;18.83;;;;;;;;;;5039236;28;20197;-73
2022/06/05 14:39:32;;;;;;;21.67;19.33;;;;;;;;;;5036981;28;21023;-73
2022/06/05 14:42:02;;;;;;;20.80;18.55;;;;;;;;;;5041505;28;20170;-73
2022/06/05 14:44:31;;;;;;;21.30;19.10;;;;;;;;;;5041817;28;20556;-73
2022/06/05 14:47:03;;;;;;;21.85;19.50;;;;;;;;;;5033567;28;20174;-73
2022/06/05 14:49:40;;;;;;;23.42;20.95;;;;;;;;;;5027997;28;20197;-73
2022/06/05 14:52:05;;;;;;;22.38;20.10;;;;;;;;;;5028921;28;20205;-73
2022/06/05 14:57:52;;;;;;;23.13;20.80;;;;;;;;;;5034908;28;20460;-73
2022/06/05 15:00:21;;;;;;;22.70;20.50;;;;;;;;;;5034071;28;20178;-73
2022/06/05 15:02:58;;;;;;;23.15;20.85;;;;;;;;;;5036381;28;20230;-73
2022/06/05 15:05:26;;;;;;;23.10;20.92;;;;;;;;;;5040957;28;20205;-73
2022/06/05 15:07:57;;;;;;;23.40;20.98;;;;;;;;;;5040678;28;20228;-73